Time;durP1;ratioP1;P1;durP2;ratioP2;P2;SDS_P1;SDS_P2;PMS_P1;PMS_P2;Temp;Humidity;BMP_temperature;BMP_pressure;BME280_temperature;BME280_humidity;BME280_pressure;Samples;Min_cycle;Max_cycle;Signal;HPM_P1;HPM_P2
2023/09/18 00:00:11;;;;;;;6.10;2.95;;;20.50;63.50;;;;;;351103;28;1079;-55
2023/09/18 00:00:22;;;;;;;7.47;3.65;;;20.50;63.40;;;;;;351105;28;1138;-56
2023/09/18 00:00:35;;;;;;;7.78;4.20;;;20.50;63.50;;;;;;351003;28;1070;-55
2023/09/18 00:00:52;;;;;;;6.70;4.03;;;20.50;63.50;;;;;;351098;28;1090;-56
2023/09/18 00:01:03;;;;;;;5.90;3.00;;;20.50;63.50;;;;;;351012;28;1094;-54
2023/09/18 00:01:14;;;;;;;8.10;2.90;;;20.50;63.50;;;;;;351065;28;839;-55
2023/09/18 00:01:25;;;;;;;7.68;3.08;;;20.50;63.50;;;;;;351102;28;1006;-54
2023/09/18 00:01:35;;;;;;;7.00;3.00;;;20.50;63.60;;;;;;351065;28;1019;-54
2023/09/18 00:01:46;;;;;;;5.50;2.78;;;20.50;63.60;;;;;;351110;28;1827;-54
2023/09/18 00:01:57;;;;;;;6.35;2.75;;;20.50;63.60;;;;;;351118;28;861;-55
2023/09/18 00:02:07;;;;;;;7.22;3.08;;;20.50;63.60;;;;;;351044;28;1150;-55
2023/09/18 00:02:18;;;;;;;6.80;3.13;;;20.50;63.60;;;;;;351121;28;978;-54
2023/09/18 00:02:31;;;;;;;6.00;2.97;;;20.50;63.60;;;;;;351076;28;987;-55
2023/09/18 00:02:41;;;;;;;5.05;2.80;;;20.40;63.60;;;;;;351050;28;1046;-55
2023/09/18 00:02:52;;;;;;;5.57;2.90;;;20.50;63.60;;;;;;351124;28;963;-54
2023/09/18 00:03:03;;;;;;;6.05;3.00;;;20.50;63.60;;;;;;351097;28;884;-54
2023/09/18 00:03:14;;;;;;;5.95;3.10;;;20.40;63.60;;;;;;351013;28;1110;-54
2023/09/18 00:03:24;;;;;;;5.50;2.97;;;20.50;63.60;;;;;;351104;28;880;-54
2023/09/18 00:03:35;;;;;;;4.73;2.77;;;20.50;63.60;;;;;;351079;28;1004;-54
2023/09/18 00:03:46;;;;;;;5.10;2.90;;;20.50;63.60;;;;;;351050;28;1833;-55
2023/09/18 00:03:57;;;;;;;5.68;2.78;;;20.50;63.60;;;;;;351113;28;990;-55
2023/09/18 00:04:09;;;;;;;6.65;2.90;;;20.50;63.60;;;;;;351141;28;1050;-55
2023/09/18 00:04:20;;;;;;;7.32;3.00;;;20.50;63.70;;;;;;351081;28;1141;-54
2023/09/18 00:04:30;;;;;;;7.50;2.95;;;20.40;63.60;;;;;;351100;28;987;-55
2023/09/18 00:04:41;;;;;;;6.50;2.65;;;20.40;63.70;;;;;;351142;28;864;-54
2023/09/18 00:04:55;;;;;;;6.83;2.67;;;20.40;63.70;;;;;;351004;28;1454;-56
2023/09/18 00:05:06;;;;;;;6.70;2.80;;;20.40;63.70;;;;;;351144;28;1960;-54
2023/09/18 00:05:17;;;;;;;6.57;2.83;;;20.40;63.80;;;;;;351154;28;892;-54
2023/09/18 00:05:28;;;;;;;6.47;2.90;;;20.40;63.80;;;;;;350979;28;1977;-55
2023/09/18 00:05:39;;;;;;;5.94;3.02;;;20.40;63.80;;;;;;351031;28;1046;-55
2023/09/18 00:05:51;;;;;;;6.03;3.03;;;20.40;63.80;;;;;;351157;28;1022;-55
2023/09/18 00:06:01;;;;;;;6.03;3.17;;;20.40;63.80;;;;;;351066;28;1054;-55
2023/09/18 00:06:12;;;;;;;5.82;2.90;;;20.40;63.80;;;;;;351005;28;1602;-54
2023/09/18 00:06:25;;;;;;;5.40;2.80;;;20.40;63.80;;;;;;351078;28;1459;-55
2023/09/18 00:06:35;;;;;;;4.20;2.63;;;20.40;63.80;;;;;;350976;28;1202;-55
2023/09/18 00:06:46;;;;;;;4.15;2.88;;;20.40;63.80;;;;;;350998;28;1091;-55
2023/09/18 00:06:57;;;;;;;4.25;2.95;;;20.40;63.70;;;;;;351091;28;1030;-55
2023/09/18 00:07:07;;;;;;;4.83;3.00;;;20.40;63.70;;;;;;351054;28;1090;-56
2023/09/18 00:07:18;;;;;;;6.25;3.00;;;20.40;63.70;;;;;;351055;28;1142;-54
2023/09/18 00:07:29;;;;;;;6.35;2.97;;;20.40;63.80;;;;;;351101;28;1111;-56
2023/09/18 00:07:39;;;;;;;6.83;2.87;;;20.40;63.70;;;;;;351006;28;1103;-55
2023/09/18 00:07:50;;;;;;;6.53;3.05;;;20.40;63.80;;;;;;351168;28;822;-55
2023/09/18 00:08:04;;;;;;;7.28;3.20;;;20.40;63.80;;;;;;351114;28;940;-55
2023/09/18 00:08:15;;;;;;;6.30;3.20;;;20.40;63.80;;;;;;351080;28;959;-55
2023/09/18 00:08:26;;;;;;;7.15;3.03;;;20.40;63.90;;;;;;351101;28;1291;-54
2023/09/18 00:08:39;;;;;;;6.55;2.95;;;20.40;63.90;;;;;;351117;28;971;-54
2023/09/18 00:08:51;;;;;;;7.68;3.00;;;20.40;63.90;;;;;;351101;28;892;-55
2023/09/18 00:09:01;;;;;;;7.53;2.90;;;20.40;63.90;;;;;;351131;28;1062;-54
2023/09/18 00:09:13;;;;;;;7.10;3.00;;;20.40;63.90;;;;;;351134;28;1019;-55
2023/09/18 00:09:24;;;;;;;5.30;2.80;;;20.40;63.90;;;;;;351013;28;1225;-55
2023/09/18 00:09:35;;;;;;;4.25;2.70;;;20.40;63.90;;;;;;351107;28;1111;-54
2023/09/18 00:09:45;;;;;;;4.72;2.60;;;20.40;63.80;;;;;;350988;28;1227;-55
2023/09/18 00:09:56;;;;;;;4.90;2.67;;;20.40;63.80;;;;;;351019;28;1042;-55
2023/09/18 00:10:07;;;;;;;5.53;2.80;;;20.40;63.80;;;;;;351122;28;1062;-55
2023/09/18 00:10:18;;;;;;;6.28;3.08;;;20.40;63.80;;;;;;351118;28;1117;-54
2023/09/18 00:10:30;;;;;;;5.90;3.03;;;20.30;63.80;;;;;;351012;28;1094;-56
2023/09/18 00:10:41;;;;;;;5.78;2.95;;;20.40;63.80;;;;;;351062;28;1131;-55
2023/09/18 00:10:54;;;;;;;5.32;3.13;;;20.30;63.80;;;;;;351033;28;1252;-55
2023/09/18 00:11:05;;;;;;;5.25;2.97;;;20.30;63.80;;;;;;350987;28;1210;-55
2023/09/18 00:11:15;;;;;;;5.55;2.95;;;20.30;63.80;;;;;;351066;28;1346;-54
2023/09/18 00:11:26;;;;;;;6.35;2.83;;;20.40;63.90;;;;;;351052;28;1099;-55
2023/09/18 00:11:40;;;;;;;7.45;3.15;;;20.30;63.80;;;;;;351039;28;1023;-56
2023/09/18 00:11:52;;;;;;;5.97;3.22;;;20.40;63.90;;;;;;351044;28;1410;-54
2023/09/18 00:12:04;;;;;;;5.85;3.35;;;20.30;63.80;;;;;;351109;28;949;-55
2023/09/18 00:12:14;;;;;;;7.00;3.30;;;20.30;63.80;;;;;;351090;28;1031;-55
2023/09/18 00:12:25;;;;;;;8.15;3.17;;;20.30;63.80;;;;;;351096;28;1150;-55
2023/09/18 00:12:36;;;;;;;7.30;3.00;;;20.30;63.80;;;;;;351041;28;1114;-54
2023/09/18 00:12:46;;;;;;;7.45;3.10;;;20.40;63.80;;;;;;351066;28;1313;-54
2023/09/18 00:12:57;;;;;;;7.13;3.22;;;20.30;63.90;;;;;;351142;28;1007;-55
2023/09/18 00:13:08;;;;;;;7.15;3.25;;;20.40;63.90;;;;;;351020;28;1091;-55
2023/09/18 00:13:19;;;;;;;6.18;2.97;;;20.40;63.90;;;;;;351168;28;2005;-54
2023/09/18 00:13:30;;;;;;;6.63;3.00;;;20.30;64.00;;;;;;351040;28;1025;-54
2023/09/18 00:13:41;;;;;;;6.72;2.90;;;20.30;64.00;;;;;;351058;28;1078;-55
2023/09/18 00:13:52;;;;;;;6.65;3.05;;;20.30;64.00;;;;;;351164;28;1066;-54
2023/09/18 00:14:03;;;;;;;6.23;3.03;;;20.30;64.00;;;;;;351133;28;844;-55
2023/09/18 00:14:14;;;;;;;7.00;3.10;;;20.30;63.90;;;;;;351107;28;1126;-54
2023/09/18 00:14:25;;;;;;;6.38;3.15;;;20.40;63.90;;;;;;351038;28;1111;-55
2023/09/18 00:14:37;;;;;;;5.53;3.13;;;20.30;63.90;;;;;;351101;28;1113;-54
2023/09/18 00:14:51;;;;;;;5.80;3.15;;;20.30;63.90;;;;;;351094;28;1012;-55
2023/09/18 00:15:02;;;;;;;6.28;2.97;;;20.30;63.90;;;;;;351085;28;2049;-55
2023/09/18 00:15:12;;;;;;;6.38;3.00;;;20.40;64.00;;;;;;351018;28;1171;-55
2023/09/18 00:15:24;;;;;;;5.00;2.80;;;20.30;64.00;;;;;;350995;28;1047;-54
2023/09/18 00:15:35;;;;;;;6.03;3.05;;;20.30;64.00;;;;;;351148;28;995;-55
2023/09/18 00:15:48;;;;;;;6.10;3.00;;;20.30;63.90;;;;;;351099;28;911;-54
2023/09/18 00:15:59;;;;;;;6.22;2.95;;;20.40;63.90;;;;;;351095;28;918;-54
2023/09/18 00:16:12;;;;;;;4.93;2.70;;;20.40;63.80;;;;;;351130;28;1078;-55
2023/09/18 00:16:24;;;;;;;6.07;2.72;;;20.30;63.80;;;;;;351061;28;1011;-55
2023/09/18 00:16:35;;;;;;;6.82;3.13;;;20.30;63.80;;;;;;351108;28;1054;-53
2023/09/18 00:16:46;;;;;;;6.83;3.23;;;20.40;63.90;;;;;;351084;28;833;-55
2023/09/18 00:16:57;;;;;;;5.65;2.92;;;20.30;63.90;;;;;;351106;28;1087;-54
2023/09/18 00:17:08;;;;;;;6.43;2.90;;;20.30;63.80;;;;;;351157;28;915;-54
2023/09/18 00:17:20;;;;;;;6.28;2.78;;;20.40;63.80;;;;;;351070;28;894;-55
2023/09/18 00:17:31;;;;;;;6.35;2.97;;;20.30;63.80;;;;;;351065;28;1190;-54
2023/09/18 00:17:42;;;;;;;8.38;3.17;;;20.30;63.80;;;;;;351114;28;891;-54
2023/09/18 00:17:53;;;;;;;9.27;3.13;;;20.30;63.80;;;;;;351050;28;1257;-54
2023/09/18 00:18:04;;;;;;;8.10;3.23;;;20.40;63.80;;;;;;351028;28;1086;-56
2023/09/18 00:18:15;;;;;;;7.28;3.20;;;20.30;63.80;;;;;;350983;28;1012;-54
2023/09/18 00:18:26;;;;;;;6.70;3.25;;;20.30;63.80;;;;;;351001;28;916;-54
2023/09/18 00:18:36;;;;;;;6.63;3.30;;;20.30;63.80;;;;;;350986;28;912;-55
2023/09/18 00:18:47;;;;;;;6.25;3.42;;;20.30;63.70;;;;;;350885;28;1015;-55
2023/09/18 00:18:58;;;;;;;6.43;3.40;;;20.30;63.80;;;;;;350969;28;1484;-55
2023/09/18 00:19:10;;;;;;;6.03;3.40;;;20.30;63.80;;;;;;350959;28;2516;-54
2023/09/18 00:19:21;;;;;;;7.03;3.20;;;20.30;63.80;;;;;;350990;28;1123;-55
2023/09/18 00:19:33;;;;;;;7.37;3.20;;;20.30;63.80;;;;;;350881;28;1024;-54
2023/09/18 00:19:44;;;;;;;7.30;3.28;;;20.30;63.80;;;;;;351017;28;931;-54
2023/09/18 00:19:55;;;;;;;6.15;3.30;;;20.30;63.80;;;;;;350919;28;1474;-54
2023/09/18 00:20:06;;;;;;;6.47;3.33;;;20.30;63.80;;;;;;350970;28;1266;-54
2023/09/18 00:20:18;;;;;;;6.40;3.28;;;20.30;63.80;;;;;;351041;28;1054;-55
2023/09/18 00:20:29;;;;;;;6.60;3.10;;;20.30;63.80;;;;;;351124;28;844;-56
2023/09/18 00:20:41;;;;;;;6.60;2.90;;;20.30;63.80;;;;;;351025;28;1007;-56
2023/09/18 00:20:52;;;;;;;7.10;3.05;;;20.30;63.80;;;;;;351112;28;864;-55
2023/09/18 00:21:03;;;;;;;6.70;3.03;;;20.30;63.80;;;;;;350989;28;1023;-54
2023/09/18 00:21:14;;;;;;;6.22;3.00;;;20.30;63.80;;;;;;351106;28;999;-55
2023/09/18 00:21:25;;;;;;;6.72;2.80;;;20.30;63.80;;;;;;351169;28;932;-55
2023/09/18 00:21:36;;;;;;;5.97;2.72;;;20.30;63.80;;;;;;351121;28;881;-54
2023/09/18 00:21:47;;;;;;;5.85;2.83;;;20.30;63.80;;;;;;350989;28;1022;-55
2023/09/18 00:22:00;;;;;;;4.93;2.85;;;20.30;63.80;;;;;;351048;28;1087;-55
2023/09/18 00:22:11;;;;;;;6.90;3.00;;;20.30;63.70;;;;;;351095;28;1015;-55
2023/09/18 00:22:24;;;;;;;6.55;2.90;;;20.30;63.80;;;;;;351098;28;955;-55
2023/09/18 00:22:35;;;;;;;5.60;2.78;;;20.30;63.80;;;;;;350992;28;1221;-55
2023/09/18 00:22:46;;;;;;;6.40;2.70;;;20.30;63.80;;;;;;351032;28;981;-55
2023/09/18 00:22:57;;;;;;;6.72;3.08;;;20.30;63.90;;;;;;351004;28;1162;-54
2023/09/18 00:23:09;;;;;;;6.40;3.10;;;20.30;63.80;;;;;;351064;28;873;-56
2023/09/18 00:23:19;;;;;;;6.05;3.30;;;20.30;63.80;;;;;;351035;28;1197;-54
2023/09/18 00:23:31;;;;;;;5.25;3.05;;;20.20;63.80;;;;;;351110;28;1071;-56
2023/09/18 00:23:42;;;;;;;5.07;3.00;;;20.30;63.80;;;;;;351012;28;1098;-56
2023/09/18 00:23:52;;;;;;;5.72;3.05;;;20.30;63.80;;;;;;351104;28;877;-56
2023/09/18 00:24:03;;;;;;;5.90;3.15;;;20.30;63.80;;;;;;351011;28;965;-55
2023/09/18 00:24:14;;;;;;;6.18;3.50;;;20.30;63.80;;;;;;351102;28;1024;-54
2023/09/18 00:24:25;;;;;;;5.63;3.30;;;20.30;63.80;;;;;;351042;28;1836;-53
2023/09/18 00:24:36;;;;;;;6.53;3.30;;;20.30;63.80;;;;;;351046;28;964;-55
2023/09/18 00:24:47;;;;;;;6.03;3.25;;;20.20;63.80;;;;;;351010;28;976;-54
2023/09/18 00:24:58;;;;;;;6.05;3.20;;;20.20;63.80;;;;;;351071;28;1615;-54
2023/09/18 00:25:08;;;;;;;5.60;3.03;;;20.30;63.90;;;;;;350999;28;992;-54
2023/09/18 00:25:19;;;;;;;6.13;2.95;;;20.20;63.90;;;;;;351110;28;1033;-55
2023/09/18 00:25:31;;;;;;;7.55;3.00;;;20.20;63.90;;;;;;350887;28;1918;-56
2023/09/18 00:25:42;;;;;;;7.38;2.97;;;20.20;63.90;;;;;;351098;28;1038;-54
2023/09/18 00:25:53;;;;;;;7.03;3.10;;;20.30;64.00;;;;;;351020;28;1149;-54
2023/09/18 00:26:04;;;;;;;5.97;3.50;;;20.30;63.90;;;;;;351003;28;1386;-56
2023/09/18 00:26:14;;;;;;;5.90;3.50;;;20.30;64.00;;;;;;350960;28;1100;-54
2023/09/18 00:26:25;;;;;;;7.95;3.80;;;20.30;63.90;;;;;;351049;28;1031;-55
2023/09/18 00:26:36;;;;;;;8.18;3.45;;;20.20;63.90;;;;;;351065;28;983;-54
2023/09/18 00:26:47;;;;;;;7.50;3.22;;;20.30;64.00;;;;;;351045;28;992;-54
2023/09/18 00:26:58;;;;;;;6.05;2.95;;;20.30;64.00;;;;;;351084;28;1000;-54
2023/09/18 00:27:11;;;;;;;6.75;3.15;;;20.30;63.90;;;;;;351090;28;1031;-54
2023/09/18 00:27:21;;;;;;;7.05;3.50;;;20.20;63.90;;;;;;351017;28;1094;-54
2023/09/18 00:27:32;;;;;;;6.85;3.70;;;20.30;63.90;;;;;;351087;28;1086;-55
2023/09/18 00:27:43;;;;;;;6.05;3.80;;;20.20;63.90;;;;;;351089;28;1078;-54
2023/09/18 00:27:54;;;;;;;6.13;3.58;;;20.20;64.00;;;;;;351126;28;786;-54
2023/09/18 00:28:05;;;;;;;6.15;3.38;;;20.20;63.90;;;;;;351038;28;950;-54
2023/09/18 00:28:15;;;;;;;5.30;3.30;;;20.20;63.90;;;;;;351130;28;971;-54
2023/09/18 00:28:26;;;;;;;5.07;3.20;;;20.30;63.90;;;;;;351090;28;964;-55
2023/09/18 00:28:37;;;;;;;5.03;3.08;;;20.20;63.90;;;;;;351117;28;1188;-54
2023/09/18 00:28:47;;;;;;;5.90;3.10;;;20.20;63.90;;;;;;350950;28;1528;-54
2023/09/18 00:28:58;;;;;;;6.80;3.33;;;20.20;64.00;;;;;;351037;28;1039;-54
2023/09/18 00:29:09;;;;;;;6.85;3.33;;;20.20;63.90;;;;;;351092;28;979;-54
2023/09/18 00:29:19;;;;;;;6.35;3.28;;;20.20;64.00;;;;;;351051;28;1062;-54
2023/09/18 00:29:30;;;;;;;5.28;3.00;;;20.20;64.00;;;;;;351075;28;1086;-54
2023/09/18 00:29:41;;;;;;;7.30;3.43;;;20.20;64.10;;;;;;350952;28;1397;-54
2023/09/18 00:29:52;;;;;;;7.53;3.50;;;20.20;64.10;;;;;;350995;28;1420;-54
2023/09/18 00:30:06;;;;;;;7.50;3.45;;;20.20;64.10;;;;;;351040;28;972;-54
2023/09/18 00:30:17;;;;;;;6.50;3.28;;;20.20;64.10;;;;;;351083;28;968;-55
2023/09/18 00:30:28;;;;;;;7.10;3.20;;;20.20;64.00;;;;;;351062;28;1007;-54
2023/09/18 00:30:46;;;;;;;7.03;3.23;;;20.20;64.00;;;;;;351004;28;1169;-55
2023/09/18 00:30:57;;;;;;;6.30;3.30;;;20.20;64.00;;;;;;351003;28;1122;-54
2023/09/18 00:31:08;;;;;;;6.15;3.15;;;20.20;64.00;;;;;;351032;28;1413;-54
2023/09/18 00:31:19;;;;;;;6.23;3.27;;;20.20;64.10;;;;;;350974;28;1146;-53
2023/09/18 00:31:30;;;;;;;7.05;3.33;;;20.20;64.10;;;;;;351059;28;1012;-54
2023/09/18 00:31:40;;;;;;;6.80;3.50;;;20.20;64.10;;;;;;351043;28;996;-54
2023/09/18 00:31:51;;;;;;;6.20;3.40;;;20.20;64.20;;;;;;351004;28;1815;-54
2023/09/18 00:32:02;;;;;;;6.57;3.30;;;20.20;64.30;;;;;;350929;28;1224;-55
2023/09/18 00:32:13;;;;;;;8.40;3.42;;;20.20;64.30;;;;;;351055;28;1162;-54
2023/09/18 00:32:24;;;;;;;8.38;3.35;;;20.20;64.30;;;;;;351097;28;1086;-54
2023/09/18 00:32:34;;;;;;;6.97;3.33;;;20.20;64.30;;;;;;351021;28;1588;-55
2023/09/18 00:32:46;;;;;;;6.57;3.58;;;20.20;64.20;;;;;;350942;28;1091;-55
2023/09/18 00:32:57;;;;;;;6.18;3.50;;;20.20;64.10;;;;;;351056;28;1131;-55
2023/09/18 00:33:08;;;;;;;5.70;3.33;;;20.20;64.10;;;;;;351048;28;1031;-54
2023/09/18 00:33:19;;;;;;;5.97;3.25;;;20.20;64.10;;;;;;351160;28;971;-54
2023/09/18 00:33:30;;;;;;;6.78;3.30;;;20.20;64.10;;;;;;351043;28;991;-55
2023/09/18 00:33:41;;;;;;;6.75;3.15;;;20.20;64.00;;;;;;351075;28;1070;-54
2023/09/18 00:33:51;;;;;;;6.30;3.08;;;20.20;63.90;;;;;;351067;28;1173;-54
2023/09/18 00:34:02;;;;;;;5.80;3.00;;;20.20;63.90;;;;;;351135;28;1011;-54
2023/09/18 00:34:13;;;;;;;6.65;3.15;;;20.20;63.90;;;;;;350961;28;1050;-55
2023/09/18 00:34:23;;;;;;;7.55;3.40;;;20.30;63.90;;;;;;350856;28;1345;-54
2023/09/18 00:34:34;;;;;;;8.83;3.60;;;20.20;64.00;;;;;;351062;28;932;-55
2023/09/18 00:34:45;;;;;;;6.72;3.28;;;20.20;64.00;;;;;;351024;28;1288;-55
2023/09/18 00:34:56;;;;;;;6.53;3.15;;;20.30;64.00;;;;;;351032;28;1017;-55
2023/09/18 00:35:07;;;;;;;5.28;3.38;;;20.30;64.10;;;;;;351126;28;1054;-55
2023/09/18 00:35:17;;;;;;;5.72;3.20;;;20.20;64.10;;;;;;351068;28;876;-55
2023/09/18 00:35:28;;;;;;;6.25;3.47;;;20.30;64.00;;;;;;351160;28;895;-54
2023/09/18 00:35:39;;;;;;;6.03;3.20;;;20.30;63.90;;;;;;350909;28;987;-55
2023/09/18 00:35:51;;;;;;;6.65;3.38;;;20.30;63.90;;;;;;350983;28;1106;-55
2023/09/18 00:36:02;;;;;;;8.60;3.47;;;20.30;63.80;;;;;;351107;28;1023;-54
2023/09/18 00:36:13;;;;;;;9.05;3.38;;;20.30;63.80;;;;;;351152;28;1057;-54
2023/09/18 00:36:24;;;;;;;9.07;3.40;;;20.30;63.70;;;;;;351009;28;1047;-55
2023/09/18 00:36:35;;;;;;;7.40;3.10;;;20.30;63.70;;;;;;350972;28;1590;-55
2023/09/18 00:36:45;;;;;;;8.55;3.10;;;20.30;63.70;;;;;;351086;28;880;-54
2023/09/18 00:36:56;;;;;;;6.40;2.90;;;20.30;63.70;;;;;;351062;28;1024;-54
2023/09/18 00:37:07;;;;;;;5.90;3.00;;;20.30;63.60;;;;;;351047;28;994;-54
2023/09/18 00:37:17;;;;;;;5.43;3.00;;;20.30;63.60;;;;;;351129;28;995;-54
2023/09/18 00:37:29;;;;;;;6.75;2.88;;;20.30;63.60;;;;;;351104;28;936;-54
2023/09/18 00:37:39;;;;;;;7.40;3.10;;;20.30;63.60;;;;;;350989;28;1126;-54
2023/09/18 00:37:50;;;;;;;9.23;3.20;;;20.30;63.60;;;;;;350985;28;1564;-54
2023/09/18 00:38:03;;;;;;;9.52;3.30;;;20.30;63.70;;;;;;351055;28;1420;-55
2023/09/18 00:38:14;;;;;;;8.90;3.45;;;20.30;63.60;;;;;;351046;28;1252;-54
2023/09/18 00:38:25;;;;;;;7.88;3.53;;;20.30;63.70;;;;;;351023;28;1158;-55
2023/09/18 00:38:36;;;;;;;6.45;3.78;;;20.30;63.70;;;;;;350974;28;1106;-57
2023/09/18 00:38:47;;;;;;;6.63;3.97;;;20.30;63.70;;;;;;351041;28;1098;-54
2023/09/18 00:38:57;;;;;;;6.82;3.92;;;20.30;63.70;;;;;;351071;28;1114;-54
2023/09/18 00:39:08;;;;;;;7.47;4.00;;;20.30;63.80;;;;;;351019;28;1103;-55
2023/09/18 00:39:19;;;;;;;8.75;3.95;;;20.30;63.80;;;;;;351032;28;1055;-54
2023/09/18 00:39:31;;;;;;;8.38;3.78;;;20.30;63.90;;;;;;351067;28;923;-54
2023/09/18 00:39:43;;;;;;;7.50;3.70;;;20.30;63.90;;;;;;351068;28;992;-54
2023/09/18 00:39:54;;;;;;;6.30;3.45;;;20.20;63.90;;;;;;351112;28;984;-54
2023/09/18 00:40:06;;;;;;;5.78;3.33;;;20.30;63.90;;;;;;350915;28;1182;-54
2023/09/18 00:40:17;;;;;;;6.40;3.28;;;20.20;63.90;;;;;;350980;28;1118;-55
2023/09/18 00:40:27;;;;;;;7.60;3.40;;;20.30;63.90;;;;;;351053;28;1416;-55
2023/09/18 00:40:38;;;;;;;7.40;3.20;;;20.30;63.90;;;;;;351024;28;1083;-54
2023/09/18 00:40:49;;;;;;;7.32;3.10;;;20.30;63.90;;;;;;351044;28;862;-54
2023/09/18 00:40:59;;;;;;;6.28;3.10;;;20.30;63.90;;;;;;351002;28;1051;-54
2023/09/18 00:41:10;;;;;;;8.67;3.57;;;20.30;63.90;;;;;;351092;28;1048;-54
2023/09/18 00:41:21;;;;;;;8.40;3.55;;;20.30;63.90;;;;;;351036;28;1836;-55
2023/09/18 00:41:31;;;;;;;6.78;3.40;;;20.20;63.90;;;;;;350931;28;1575;-55
2023/09/18 00:41:43;;;;;;;6.13;3.25;;;20.30;63.90;;;;;;351088;28;1035;-54
2023/09/18 00:41:54;;;;;;;6.68;3.42;;;20.30;63.90;;;;;;351041;28;1063;-53
2023/09/18 00:42:05;;;;;;;7.90;3.78;;;20.30;63.90;;;;;;351101;28;1882;-55
2023/09/18 00:42:17;;;;;;;7.18;3.50;;;20.30;64.00;;;;;;351043;28;1009;-55
2023/09/18 00:42:28;;;;;;;6.80;3.47;;;20.30;64.00;;;;;;351089;28;1198;-54
2023/09/18 00:42:39;;;;;;;6.70;3.50;;;20.30;64.00;;;;;;351059;28;872;-55
2023/09/18 00:42:49;;;;;;;6.78;3.53;;;20.30;64.00;;;;;;350999;28;1039;-55
2023/09/18 00:43:00;;;;;;;6.72;3.40;;;20.20;63.90;;;;;;351064;28;975;-55
2023/09/18 00:43:11;;;;;;;6.95;3.55;;;20.20;63.90;;;;;;350977;28;1118;-55
2023/09/18 00:43:21;;;;;;;6.90;3.60;;;20.20;63.90;;;;;;351089;28;1017;-55
2023/09/18 00:43:32;;;;;;;7.10;3.75;;;20.20;63.90;;;;;;351089;28;1014;-55
2023/09/18 00:43:43;;;;;;;7.03;3.70;;;20.30;63.90;;;;;;351000;28;1918;-55
2023/09/18 00:43:53;;;;;;;6.87;3.57;;;20.30;64.00;;;;;;350887;28;1150;-55
2023/09/18 00:44:05;;;;;;;6.70;3.55;;;20.30;64.00;;;;;;351006;28;1478;-55
2023/09/18 00:44:15;;;;;;;6.57;3.53;;;20.30;64.00;;;;;;351085;28;979;-54
2023/09/18 00:44:26;;;;;;;6.80;3.73;;;20.20;63.90;;;;;;350957;28;1015;-54
2023/09/18 00:44:37;;;;;;;7.78;3.90;;;20.20;64.00;;;;;;351064;28;1034;-55
2023/09/18 00:44:48;;;;;;;7.45;3.88;;;20.20;63.90;;;;;;351066;28;991;-55
2023/09/18 00:44:58;;;;;;;8.52;3.70;;;20.20;64.00;;;;;;350968;28;1078;-55
2023/09/18 00:45:09;;;;;;;7.27;3.47;;;20.30;64.00;;;;;;351049;28;979;-54
2023/09/18 00:45:20;;;;;;;7.80;3.60;;;20.20;64.10;;;;;;351089;28;1093;-55
2023/09/18 00:45:31;;;;;;;7.55;3.55;;;20.30;64.10;;;;;;350917;28;1902;-54
2023/09/18 00:45:47;;;;;;;7.55;3.65;;;20.30;64.10;;;;;;350984;28;1368;-56
2023/09/18 00:45:58;;;;;;;7.40;3.75;;;20.30;64.10;;;;;;350916;28;995;-55
2023/09/18 00:46:09;;;;;;;7.10;3.83;;;20.20;64.10;;;;;;350935;28;1455;-54
2023/09/18 00:46:20;;;;;;;7.45;4.05;;;20.30;64.10;;;;;;351028;28;1027;-54
2023/09/18 00:46:31;;;;;;;6.55;3.63;;;20.30;64.10;;;;;;350935;28;1130;-55
2023/09/18 00:46:43;;;;;;;6.32;3.45;;;20.20;64.00;;;;;;351100;28;837;-54
2023/09/18 00:46:56;;;;;;;5.38;3.25;;;20.30;64.00;;;;;;351042;28;1039;-54
2023/09/18 00:47:08;;;;;;;6.30;3.28;;;20.30;64.00;;;;;;350985;28;957;-55
2023/09/18 00:47:19;;;;;;;6.18;3.22;;;20.30;64.00;;;;;;351098;28;1002;-54
2023/09/18 00:47:30;;;;;;;9.45;3.45;;;20.30;64.00;;;;;;350986;28;1861;-54
2023/09/18 00:47:41;;;;;;;9.93;3.43;;;20.30;64.00;;;;;;351080;28;1016;-55
2023/09/18 00:47:52;;;;;;;10.00;3.40;;;20.20;64.00;;;;;;351030;28;1042;-55
2023/09/18 00:48:03;;;;;;;5.72;2.90;;;20.30;63.90;;;;;;350959;28;1166;-55
2023/09/18 00:48:16;;;;;;;5.75;2.85;;;20.30;63.90;;;;;;351091;28;837;-54
2023/09/18 00:48:28;;;;;;;7.43;3.47;;;20.30;63.90;;;;;;350989;28;1279;-55
2023/09/18 00:48:39;;;;;;;7.57;3.67;;;20.30;63.90;;;;;;351040;28;1202;-55
2023/09/18 00:48:50;;;;;;;7.63;3.53;;;20.30;63.90;;;;;;351101;28;1026;-55
2023/09/18 00:49:02;;;;;;;6.97;3.30;;;20.20;63.90;;;;;;350999;28;892;-55
2023/09/18 00:49:14;;;;;;;7.10;3.20;;;20.20;63.90;;;;;;351064;28;1047;-54
2023/09/18 00:49:24;;;;;;;6.32;3.25;;;20.30;63.90;;;;;;351010;28;1008;-54
2023/09/18 00:49:37;;;;;;;6.25;3.40;;;20.30;63.80;;;;;;351077;28;1019;-54
2023/09/18 00:49:50;;;;;;;6.35;3.47;;;20.30;63.80;;;;;;350983;28;934;-54
2023/09/18 00:50:01;;;;;;;6.22;3.33;;;20.30;63.80;;;;;;351146;28;829;-56
2023/09/18 00:50:14;;;;;;;7.40;3.45;;;20.20;63.80;;;;;;350998;28;984;-54
2023/09/18 00:50:25;;;;;;;7.88;3.45;;;20.20;63.90;;;;;;351059;28;1094;-56
2023/09/18 00:50:38;;;;;;;7.13;3.50;;;20.20;63.90;;;;;;351021;28;904;-54
2023/09/18 00:50:49;;;;;;;6.90;3.45;;;20.20;63.90;;;;;;351065;28;1031;-56
2023/09/18 00:51:00;;;;;;;8.02;3.47;;;20.20;64.00;;;;;;350985;28;1102;-54
2023/09/18 00:51:11;;;;;;;7.13;3.20;;;20.20;64.00;;;;;;351014;28;890;-54
2023/09/18 00:51:22;;;;;;;6.22;3.30;;;20.20;64.00;;;;;;351028;28;928;-54
2023/09/18 00:51:33;;;;;;;5.53;3.35;;;20.20;64.00;;;;;;351131;28;896;-55
2023/09/18 00:51:44;;;;;;;6.20;3.38;;;20.20;64.10;;;;;;350950;28;1241;-55
2023/09/18 00:51:54;;;;;;;6.65;3.42;;;20.20;64.20;;;;;;351043;28;987;-55
2023/09/18 00:52:08;;;;;;;6.47;3.30;;;20.20;64.10;;;;;;351025;28;987;-54
2023/09/18 00:52:20;;;;;;;7.30;3.45;;;20.20;64.10;;;;;;350983;28;1035;-53
2023/09/18 00:52:32;;;;;;;7.53;3.45;;;20.20;64.10;;;;;;351076;28;1040;-54
2023/09/18 00:52:43;;;;;;;8.65;3.47;;;20.20;64.20;;;;;;350963;28;995;-55
2023/09/18 00:52:54;;;;;;;8.27;3.50;;;20.20;64.20;;;;;;351065;28;1115;-54
2023/09/18 00:53:08;;;;;;;7.20;3.50;;;20.20;64.20;;;;;;350968;28;1180;-55
2023/09/18 00:53:23;;;;;;;7.18;3.58;;;20.20;64.30;;;;;;351100;28;1011;-55
2023/09/18 00:53:34;;;;;;;7.22;3.70;;;20.20;64.40;;;;;;351002;28;968;-54
2023/09/18 00:53:48;;;;;;;6.28;3.80;;;20.20;64.40;;;;;;351022;28;1003;-55
2023/09/18 00:53:59;;;;;;;6.32;3.58;;;20.20;64.30;;;;;;350925;28;1209;-55
2023/09/18 00:54:11;;;;;;;5.97;3.45;;;20.20;64.30;;;;;;351071;28;935;-55
2023/09/18 00:54:22;;;;;;;5.93;3.30;;;20.20;64.30;;;;;;351050;28;893;-55
2023/09/18 00:54:34;;;;;;;5.72;3.47;;;20.20;64.20;;;;;;351002;28;1047;-55
2023/09/18 00:54:46;;;;;;;6.20;3.70;;;20.20;64.20;;;;;;350933;28;1103;-55
2023/09/18 00:54:57;;;;;;;6.88;3.60;;;20.20;64.20;;;;;;351034;28;1019;-55
2023/09/18 00:55:09;;;;;;;7.03;3.63;;;20.20;64.20;;;;;;350905;28;984;-55
2023/09/18 00:55:19;;;;;;;6.25;3.50;;;20.20;64.10;;;;;;351098;28;1046;-55
2023/09/18 00:55:32;;;;;;;5.88;3.50;;;20.20;64.20;;;;;;351016;28;1791;-55
2023/09/18 00:55:43;;;;;;;5.95;3.50;;;20.20;64.20;;;;;;350974;28;938;-54
2023/09/18 00:55:57;;;;;;;6.10;3.63;;;20.20;64.20;;;;;;351012;28;1075;-53
2023/09/18 00:56:08;;;;;;;6.40;3.53;;;20.20;64.20;;;;;;350923;28;947;-54
2023/09/18 00:56:20;;;;;;;5.47;3.50;;;20.20;64.30;;;;;;351064;28;841;-55
2023/09/18 00:56:30;;;;;;;4.70;3.40;;;20.20;64.30;;;;;;350949;28;1672;-54
2023/09/18 00:56:41;;;;;;;4.68;3.30;;;20.20;64.40;;;;;;350995;28;857;-54
2023/09/18 00:56:54;;;;;;;5.57;3.17;;;20.20;64.40;;;;;;351092;28;884;-55
2023/09/18 00:57:05;;;;;;;5.88;3.10;;;20.20;64.40;;;;;;351016;28;890;-55
2023/09/18 00:57:16;;;;;;;6.20;3.17;;;20.20;64.40;;;;;;351108;28;1070;-55
2023/09/18 00:57:28;;;;;;;5.55;2.95;;;20.20;64.40;;;;;;351089;28;904;-54
2023/09/18 00:57:39;;;;;;;5.15;3.15;;;20.20;64.40;;;;;;350949;28;1082;-55
2023/09/18 00:57:49;;;;;;;4.70;3.10;;;20.20;64.40;;;;;;351044;28;975;-55
2023/09/18 00:58:00;;;;;;;6.07;3.40;;;20.10;64.40;;;;;;351072;28;813;-55
2023/09/18 00:58:11;;;;;;;8.25;3.45;;;20.10;64.40;;;;;;351027;28;1012;-55
2023/09/18 00:58:23;;;;;;;7.75;3.17;;;20.20;64.40;;;;;;351090;28;1043;-55
2023/09/18 00:58:34;;;;;;;6.20;3.13;;;20.10;64.30;;;;;;351088;28;928;-55
2023/09/18 00:58:46;;;;;;;5.78;3.20;;;20.20;64.40;;;;;;350992;28;997;-55
2023/09/18 00:58:57;;;;;;;5.63;3.25;;;20.20;64.40;;;;;;351065;28;1098;-55
2023/09/18 00:59:09;;;;;;;6.63;3.30;;;20.20;64.30;;;;;;351107;28;829;-55
2023/09/18 00:59:21;;;;;;;7.15;3.40;;;20.20;64.30;;;;;;350937;28;1126;-55
2023/09/18 00:59:33;;;;;;;7.38;3.50;;;20.10;64.30;;;;;;351089;28;972;-54
2023/09/18 00:59:45;;;;;;;6.72;3.33;;;20.20;64.30;;;;;;350953;28;1062;-55
2023/09/18 00:59:56;;;;;;;5.68;3.05;;;20.20;64.30;;;;;;351113;28;1030;-54
2023/09/18 01:00:07;;;;;;;5.23;2.97;;;20.20;64.40;;;;;;350993;28;1939;-55
2023/09/18 01:00:18;;;;;;;5.13;3.22;;;20.20;64.30;;;;;;350984;28;910;-55
2023/09/18 01:00:29;;;;;;;5.70;3.50;;;20.20;64.40;;;;;;351021;28;852;-54